Time;durP1;ratioP1;P1;durP2;ratioP2;P2;SDS_P1;SDS_P2;PMS_P1;PMS_P2;Temp;Humidity;BMP_temperature;BMP_pressure;BME280_temperature;BME280_humidity;BME280_pressure;Samples;Min_cycle;Max_cycle;Signal;HPM_P1;HPM_P2
2020/12/19 00:01:12;;;;;;;6.68;5.05;;;;;;;;;;5099056;28;20055;-22
2020/12/19 00:03:37;;;;;;;7.75;5.43;;;;;;;;;;5098609;28;20382;-19
2020/12/19 00:06:06;;;;;;;7.40;4.95;;;;;;;;;;5098837;28;20451;-19
2020/12/19 00:08:31;;;;;;;9.23;6.00;;;;;;;;;;5098569;28;20049;-18
2020/12/19 00:10:57;;;;;;;11.68;6.07;;;;;;;;;;5098598;28;20020;-19
2020/12/19 00:13:22;;;;;;;6.22;5.38;;;;;;;;;;5097445;28;20028;-18
2020/12/19 00:15:48;;;;;;;8.02;5.82;;;;;;;;;;5098655;28;20012;-19
2020/12/19 00:18:13;;;;;;;10.82;7.03;;;;;;;;;;5098481;28;20024;-18
2020/12/19 00:20:39;;;;;;;8.48;5.50;;;;;;;;;;5098637;28;20024;-19
2020/12/19 00:23:04;;;;;;;10.65;6.00;;;;;;;;;;5098468;28;20095;-18
2020/12/19 00:25:29;;;;;;;9.45;5.35;;;;;;;;;;5095283;28;20039;-19
2020/12/19 00:27:55;;;;;;;9.15;5.35;;;;;;;;;;5095439;28;20032;-19
2020/12/19 00:30:20;;;;;;;9.38;5.93;;;;;;;;;;5095137;28;20033;-19
2020/12/19 00:32:46;;;;;;;8.93;5.72;;;;;;;;;;5095447;28;20077;-19
2020/12/19 00:35:11;;;;;;;9.27;5.88;;;;;;;;;;5095209;28;20020;-19
2020/12/19 00:37:41;;;;;;;7.50;5.30;;;;;;;;;;5093668;28;20046;-18
2020/12/19 00:40:06;;;;;;;11.13;5.22;;;;;;;;;;5095044;28;20039;-19
2020/12/19 00:42:34;;;;;;;7.15;5.55;;;;;;;;;;5095237;28;20475;-20
2020/12/19 00:44:59;;;;;;;10.50;5.78;;;;;;;;;;5095309;28;20020;-20
2020/12/19 00:47:25;;;;;;;9.48;5.28;;;;;;;;;;5094711;28;20038;-19
2020/12/19 00:49:50;;;;;;;9.20;5.95;;;;;;;;;;5094758;28;20072;-19
2020/12/19 00:52:19;;;;;;;7.70;5.30;;;;;;;;;;5095195;28;20446;-22
2020/12/19 00:54:44;;;;;;;6.93;4.72;;;;;;;;;;5093440;28;20057;-19
2020/12/19 00:57:09;;;;;;;7.10;5.18;;;;;;;;;;5094937;28;20067;-19
2020/12/19 00:59:35;;;;;;;7.65;4.63;;;;;;;;;;5094952;28;20411;-19
2020/12/19 01:02:00;;;;;;;7.63;5.65;;;;;;;;;;5094880;28;20655;-19
2020/12/19 01:04:26;;;;;;;7.55;5.18;;;;;;;;;;5094545;28;20378;-19
2020/12/19 01:06:51;;;;;;;6.75;4.95;;;;;;;;;;5094451;28;20040;-19
2020/12/19 01:09:17;;;;;;;7.20;5.70;;;;;;;;;;5094535;28;20012;-19
2020/12/19 01:11:42;;;;;;;8.32;4.68;;;;;;;;;;5094406;28;20028;-19
2020/12/19 01:14:08;;;;;;;7.97;5.30;;;;;;;;;;5094378;28;20031;-19
2020/12/19 01:16:33;;;;;;;9.93;6.18;;;;;;;;;;5093065;28;20064;-19
2020/12/19 01:18:59;;;;;;;8.48;5.30;;;;;;;;;;5094328;28;20020;-19
2020/12/19 01:21:26;;;;;;;7.10;4.65;;;;;;;;;;5094223;28;20036;-19
2020/12/19 01:23:52;;;;;;;10.98;5.45;;;;;;;;;;5094260;28;20028;-19
2020/12/19 01:26:17;;;;;;;10.57;5.93;;;;;;;;;;5094153;28;20028;-19
2020/12/19 01:28:43;;;;;;;7.03;5.28;;;;;;;;;;5092955;28;20497;-19
2020/12/19 01:31:10;;;;;;;8.60;5.30;;;;;;;;;;5094239;28;20494;-18
2020/12/19 01:33:36;;;;;;;9.52;5.25;;;;;;;;;;5094042;28;20458;-19
2020/12/19 01:36:02;;;;;;;10.63;5.57;;;;;;;;;;5093512;28;20115;-18
2020/12/19 01:38:27;;;;;;;7.70;4.97;;;;;;;;;;5093774;28;20020;-20
2020/12/19 01:40:54;;;;;;;8.50;5.25;;;;;;;;;;5093818;28;20081;-19
2020/12/19 01:43:19;;;;;;;8.85;5.10;;;;;;;;;;5092491;28;20028;-18
2020/12/19 01:45:45;;;;;;;9.52;6.05;;;;;;;;;;5093759;28;20036;-18
2020/12/19 01:48:16;;;;;;;11.43;5.53;;;;;;;;;;5093745;28;20050;-18
2020/12/19 01:50:42;;;;;;;7.80;5.15;;;;;;;;;;5093512;28;20056;-18
2020/12/19 01:53:07;;;;;;;9.43;5.90;;;;;;;;;;5093951;28;20099;-19
2020/12/19 01:55:33;;;;;;;8.48;5.13;;;;;;;;;;5093855;28;20031;-19
2020/12/19 01:57:58;;;;;;;8.90;5.63;;;;;;;;;;5093731;28;20012;-18
2020/12/19 02:00:24;;;;;;;7.82;4.38;;;;;;;;;;5093549;28;20028;-19
2020/12/19 02:02:49;;;;;;;9.77;5.50;;;;;;;;;;5093781;28;20019;-19
2020/12/19 02:05:15;;;;;;;9.30;5.25;;;;;;;;;;5092074;28;20070;-18
2020/12/19 02:07:40;;;;;;;8.35;5.03;;;;;;;;;;5093481;28;20078;-19
2020/12/19 02:10:06;;;;;;;8.63;5.35;;;;;;;;;;5092367;28;20497;-19
2020/12/19 02:12:31;;;;;;;6.55;4.97;;;;;;;;;;5093257;28;20455;-19
2020/12/19 02:14:57;;;;;;;6.22;4.72;;;;;;;;;;5093499;28;20058;-19
2020/12/19 02:17:22;;;;;;;8.77;4.82;;;;;;;;;;5093480;28;20077;-19
2020/12/19 02:19:48;;;;;;;5.28;4.15;;;;;;;;;;5091870;28;20039;-19
2020/12/19 02:22:13;;;;;;;7.40;5.10;;;;;;;;;;5093150;28;20324;-19
2020/12/19 02:24:39;;;;;;;10.25;5.47;;;;;;;;;;5091743;28;20036;-18
2020/12/19 02:27:04;;;;;;;8.13;5.47;;;;;;;;;;5092882;28;20113;-18
2020/12/19 02:29:31;;;;;;;8.18;5.10;;;;;;;;;;5091714;28;20031;-19
2020/12/19 02:31:57;;;;;;;10.50;5.65;;;;;;;;;;5092075;28;20411;-18
2020/12/19 02:34:23;;;;;;;7.22;5.43;;;;;;;;;;5091815;28;20028;-18
2020/12/19 02:36:48;;;;;;;9.55;5.95;;;;;;;;;;5092912;28;20027;-20
2020/12/19 02:39:14;;;;;;;11.10;5.70;;;;;;;;;;5093213;28;20086;-18
2020/12/19 02:41:41;;;;;;;8.40;4.80;;;;;;;;;;5092705;28;20024;-20
2020/12/19 02:44:08;;;;;;;7.28;4.85;;;;;;;;;;5093110;28;20032;-19
2020/12/19 02:46:33;;;;;;;10.60;6.30;;;;;;;;;;5092136;28;20032;-19
2020/12/19 02:48:59;;;;;;;7.28;5.68;;;;;;;;;;5092318;28;20069;-19
2020/12/19 02:51:24;;;;;;;6.80;4.55;;;;;;;;;;5092463;28;20044;-18
2020/12/19 02:53:50;;;;;;;8.32;5.80;;;;;;;;;;5092636;28;20048;-19
2020/12/19 02:56:15;;;;;;;10.13;5.25;;;;;;;;;;5092565;28;20195;-19
2020/12/19 02:58:41;;;;;;;9.88;6.18;;;;;;;;;;5092525;28;20032;-18
2020/12/19 03:01:06;;;;;;;7.68;5.30;;;;;;;;;;5092563;28;20066;-19
2020/12/19 03:03:32;;;;;;;9.15;5.32;;;;;;;;;;5074326;28;20455;-18
2020/12/19 03:05:58;;;;;;;8.32;4.85;;;;;;;;;;5091117;28;20016;-19
2020/12/19 03:08:23;;;;;;;10.02;5.30;;;;;;;;;;5092640;28;20036;-19
2020/12/19 03:10:49;;;;;;;6.85;4.80;;;;;;;;;;5092712;28;20020;-18
2020/12/19 03:13:14;;;;;;;8.32;5.88;;;;;;;;;;5092552;28;20115;-18
2020/12/19 03:15:39;;;;;;;9.35;4.85;;;;;;;;;;5092330;28;20020;-19
2020/12/19 03:18:05;;;;;;;10.07;5.40;;;;;;;;;;5092250;28;20043;-18
2020/12/19 03:20:30;;;;;;;10.20;5.13;;;;;;;;;;5074264;28;20008;-17
2020/12/19 03:22:56;;;;;;;6.70;4.72;;;;;;;;;;5091037;28;20127;-19
2020/12/19 03:25:21;;;;;;;8.13;5.15;;;;;;;;;;5090919;28;20024;-17
2020/12/19 03:27:46;;;;;;;6.85;5.18;;;;;;;;;;5074156;28;20044;-18
2020/12/19 03:30:12;;;;;;;7.80;5.13;;;;;;;;;;5092507;28;20028;-19
2020/12/19 03:32:37;;;;;;;8.25;4.70;;;;;;;;;;5092158;28;20038;-18
2020/12/19 03:35:03;;;;;;;7.65;5.18;;;;;;;;;;5092264;28;20355;-18
2020/12/19 03:37:28;;;;;;;9.13;5.60;;;;;;;;;;5092340;28;20048;-18
2020/12/19 03:39:53;;;;;;;7.78;5.10;;;;;;;;;;5092508;28;20465;-18
2020/12/19 03:42:19;;;;;;;8.88;5.75;;;;;;;;;;5092135;28;20032;-19
2020/12/19 03:44:44;;;;;;;7.43;4.72;;;;;;;;;;5090831;28;20017;-21
2020/12/19 03:47:10;;;;;;;11.35;5.88;;;;;;;;;;5092084;28;20036;-18
2020/12/19 03:49:35;;;;;;;8.65;5.25;;;;;;;;;;5092046;28;20040;-19
2020/12/19 03:52:01;;;;;;;8.23;5.53;;;;;;;;;;5092021;28;20398;-20
2020/12/19 03:54:26;;;;;;;8.77;6.68;;;;;;;;;;5091983;28;20028;-19
2020/12/19 03:56:51;;;;;;;8.75;5.95;;;;;;;;;;5091846;28;20032;-19
2020/12/19 03:59:17;;;;;;;7.20;5.47;;;;;;;;;;5094095;28;20070;-19
2020/12/19 04:01:42;;;;;;;9.75;5.93;;;;;;;;;;5096068;28;20028;-21
2020/12/19 04:04:08;;;;;;;9.68;5.53;;;;;;;;;;5095821;28;20505;-19
2020/12/19 04:06:33;;;;;;;8.32;5.80;;;;;;;;;;5095552;28;20032;-20
2020/12/19 04:08:58;;;;;;;7.53;5.75;;;;;;;;;;5095715;28;20542;-20
2020/12/19 04:11:24;;;;;;;9.55;5.82;;;;;;;;;;5095668;28;20047;-18
2020/12/19 04:13:49;;;;;;;10.98;5.80;;;;;;;;;;5095613;28;20043;-19
2020/12/19 04:16:14;;;;;;;9.02;5.45;;;;;;;;;;5095519;28;20024;-19
2020/12/19 04:18:40;;;;;;;7.97;5.60;;;;;;;;;;5095472;28;20020;-17
2020/12/19 04:21:06;;;;;;;10.05;5.70;;;;;;;;;;5095460;28;20462;-19
2020/12/19 04:23:32;;;;;;;9.65;5.72;;;;;;;;;;5094110;28;20059;-19
2020/12/19 04:25:59;;;;;;;12.20;6.30;;;;;;;;;;5094131;28;20056;-21
2020/12/19 04:28:24;;;;;;;8.38;5.85;;;;;;;;;;5095224;28;20024;-18
2020/12/19 04:30:50;;;;;;;8.15;5.35;;;;;;;;;;5095342;28;20028;-18
2020/12/19 04:33:15;;;;;;;11.77;6.32;;;;;;;;;;5095285;28;20054;-19
2020/12/19 04:35:40;;;;;;;8.40;5.65;;;;;;;;;;5095103;28;20047;-19
2020/12/19 04:38:06;;;;;;;9.57;5.20;;;;;;;;;;5095145;28;20020;-19
2020/12/19 04:40:31;;;;;;;8.05;5.40;;;;;;;;;;5093710;28;20530;-19
2020/12/19 04:42:57;;;;;;;8.63;5.65;;;;;;;;;;5093752;28;20031;-19
2020/12/19 04:45:23;;;;;;;10.70;5.68;;;;;;;;;;5094966;28;20470;-20
2020/12/19 04:47:48;;;;;;;9.63;5.22;;;;;;;;;;5094884;28;20054;-19
2020/12/19 04:50:14;;;;;;;9.38;5.35;;;;;;;;;;5094778;28;20514;-19
2020/12/19 04:52:40;;;;;;;10.68;5.70;;;;;;;;;;5094808;28;20039;-20
2020/12/19 04:55:06;;;;;;;12.50;5.60;;;;;;;;;;5094858;28;20042;-19
2020/12/19 04:57:31;;;;;;;10.63;5.65;;;;;;;;;;5093592;28;20023;-19
2020/12/19 04:59:57;;;;;;;8.45;5.30;;;;;;;;;;5095066;28;20524;-19
2020/12/19 05:02:22;;;;;;;9.20;5.50;;;;;;;;;;5094942;28;20020;-19
2020/12/19 05:04:49;;;;;;;8.27;5.65;;;;;;;;;;5094668;28;20074;-19
2020/12/19 05:07:15;;;;;;;7.93;4.88;;;;;;;;;;5094554;28;20190;-20
2020/12/19 05:09:41;;;;;;;8.25;5.47;;;;;;;;;;5092675;28;20159;-19
2020/12/19 05:12:07;;;;;;;9.65;5.68;;;;;;;;;;5092846;28;20032;-20
2020/12/19 05:14:33;;;;;;;7.50;5.65;;;;;;;;;;5094472;28;20024;-19
2020/12/19 05:17:01;;;;;;;8.70;6.30;;;;;;;;;;5093020;28;20024;-20
2020/12/19 05:19:27;;;;;;;9.70;5.50;;;;;;;;;;5094296;28;20107;-19
2020/12/19 05:21:54;;;;;;;9.13;5.93;;;;;;;;;;5094575;28;20051;-20
2020/12/19 05:24:23;;;;;;;11.75;6.25;;;;;;;;;;5094292;28;20438;-19
2020/12/19 05:26:49;;;;;;;9.63;6.03;;;;;;;;;;5094449;28;20047;-19
2020/12/19 05:29:14;;;;;;;7.85;5.15;;;;;;;;;;5094194;28;20024;-19
2020/12/19 05:31:40;;;;;;;7.72;5.07;;;;;;;;;;5094067;28;20020;-19
2020/12/19 05:34:06;;;;;;;7.25;5.07;;;;;;;;;;5094045;28;20085;-19
2020/12/19 05:36:35;;;;;;;9.25;5.30;;;;;;;;;;5092638;28;20077;-17
2020/12/19 05:39:01;;;;;;;8.90;4.82;;;;;;;;;;5094226;28;20077;-19
2020/12/19 05:41:27;;;;;;;9.32;5.30;;;;;;;;;;5094174;28;20024;-19
2020/12/19 05:43:53;;;;;;;7.72;4.82;;;;;;;;;;5093915;28;20445;-19
2020/12/19 05:46:27;;;;;;;8.38;5.38;;;;;;;;;;5093714;28;20031;-19
2020/12/19 05:48:53;;;;;;;9.88;5.40;;;;;;;;;;5093777;28;20070;-20
2020/12/19 05:51:19;;;;;;;8.75;5.68;;;;;;;;;;5093705;28;20041;-19
2020/12/19 05:53:45;;;;;;;8.10;5.00;;;;;;;;;;5093821;28;20085;-18
2020/12/19 05:56:11;;;;;;;7.50;5.25;;;;;;;;;;5093659;28;20044;-19
2020/12/19 05:58:37;;;;;;;7.55;5.38;;;;;;;;;;5093553;28;20076;-22
2020/12/19 06:01:04;;;;;;;8.15;5.30;;;;;;;;;;5093550;28;20068;-19
2020/12/19 06:03:30;;;;;;;7.38;5.22;;;;;;;;;;5092494;28;20047;-19
2020/12/19 06:05:57;;;;;;;8.13;5.00;;;;;;;;;;5093387;28;20439;-19
2020/12/19 06:08:24;;;;;;;7.13;4.75;;;;;;;;;;5093563;28;20044;-19
2020/12/19 06:10:53;;;;;;;7.55;4.95;;;;;;;;;;5093414;28;20462;-19
2020/12/19 06:13:19;;;;;;;8.00;5.10;;;;;;;;;;5092091;28;20111;-19
2020/12/19 06:15:51;;;;;;;7.30;5.10;;;;;;;;;;5093137;28;20488;-19
2020/12/19 06:18:20;;;;;;;7.70;5.50;;;;;;;;;;5093333;28;20039;-19
2020/12/19 06:20:46;;;;;;;9.63;4.97;;;;;;;;;;5093079;28;20462;-19
2020/12/19 06:23:15;;;;;;;8.55;5.47;;;;;;;;;;5093345;28;20028;-19
2020/12/19 06:25:43;;;;;;;7.50;5.38;;;;;;;;;;5093036;28;20376;-20
2020/12/19 06:28:09;;;;;;;7.65;4.70;;;;;;;;;;5093152;28;20036;-19
2020/12/19 06:30:35;;;;;;;8.93;5.35;;;;;;;;;;5091593;28;20027;-19
2020/12/19 06:33:10;;;;;;;11.13;5.10;;;;;;;;;;5093263;28;20032;-18
2020/12/19 06:35:35;;;;;;;8.10;5.75;;;;;;;;;;5092868;28;20024;-19
2020/12/19 06:38:01;;;;;;;7.88;4.75;;;;;;;;;;5092814;28;20373;-20
2020/12/19 06:40:26;;;;;;;6.18;4.45;;;;;;;;;;5091538;28;20044;-18
2020/12/19 06:43:10;;;;;;;7.88;4.43;;;;;;;;;;5092782;28;20016;-20
2020/12/19 06:45:35;;;;;;;7.90;5.20;;;;;;;;;;5091376;28;20035;-19
2020/12/19 06:48:01;;;;;;;7.85;5.25;;;;;;;;;;5091300;28;20039;-19
2020/12/19 06:50:46;;;;;;;7.32;5.20;;;;;;;;;;5091278;28;20052;-19
2020/12/19 06:53:15;;;;;;;10.57;5.35;;;;;;;;;;5092619;28;20054;-19
2020/12/19 06:55:40;;;;;;;8.75;5.15;;;;;;;;;;5091297;28;20023;-19
2020/12/19 06:58:06;;;;;;;6.45;4.78;;;;;;;;;;5092811;28;20123;-19
2020/12/19 07:00:31;;;;;;;9.52;5.32;;;;;;;;;;5092569;28;20381;-18
2020/12/19 07:03:01;;;;;;;7.57;5.30;;;;;;;;;;5092590;28;20430;-18
2020/12/19 07:05:26;;;;;;;23.73;6.30;;;;;;;;;;5092540;28;20016;-19
2020/12/19 07:07:54;;;;;;;9.80;5.97;;;;;;;;;;5092711;28;20043;-19
2020/12/19 07:10:35;;;;;;;10.38;5.80;;;;;;;;;;5091748;28;20020;-19
2020/12/19 07:13:01;;;;;;;7.38;5.28;;;;;;;;;;4736430;28;10000376;-19
2020/12/19 07:15:41;;;;;;;10.32;5.88;;;;;;;;;;5092496;28;20016;-18
2020/12/19 07:18:22;;;;;;;10.95;5.70;;;;;;;;;;5088924;28;20028;-20
2020/12/19 07:20:55;;;;;;;7.88;5.90;;;;;;;;;;5088035;28;20056;-21
2020/12/19 07:23:21;;;;;;;10.65;7.25;;;;;;;;;;5087879;28;20215;-21
2020/12/19 07:25:47;;;;;;;8.15;6.43;;;;;;;;;;5089901;28;20024;-22
2020/12/19 07:28:14;;;;;;;10.90;6.35;;;;;;;;;;5109564;28;20035;-21
2020/12/19 07:30:40;;;;;;;9.23;5.53;;;;;;;;;;5109297;28;20020;-21
2020/12/19 07:33:07;;;;;;;8.85;5.68;;;;;;;;;;5109857;28;20504;-21
2020/12/19 07:35:32;;;;;;;7.47;4.78;;;;;;;;;;5113319;28;20012;-21
2020/12/19 07:37:58;;;;;;;8.13;5.05;;;;;;;;;;5113496;28;20038;-22
2020/12/19 07:40:23;;;;;;;9.13;5.93;;;;;;;;;;5113483;28;20301;-20
2020/12/19 07:42:58;;;;;;;7.22;4.68;;;;;;;;;;5112941;28;20377;-21
2020/12/19 07:45:23;;;;;;;17.42;5.65;;;;;;;;;;5113377;28;20023;-21
2020/12/19 07:47:49;;;;;;;8.65;5.05;;;;;;;;;;5113042;28;20032;-21
2020/12/19 07:50:21;;;;;;;9.77;5.05;;;;;;;;;;5113241;28;20051;-20
2020/12/19 07:52:47;;;;;;;8.65;5.38;;;;;;;;;;5112885;28;20696;-21
2020/12/19 07:55:12;;;;;;;9.63;5.90;;;;;;;;;;5111715;28;20051;-20
2020/12/19 07:57:38;;;;;;;8.98;5.57;;;;;;;;;;5112741;28;20027;-21
2020/12/19 08:00:04;;;;;;;9.00;5.95;;;;;;;;;;5113143;28;20024;-20
2020/12/19 08:02:30;;;;;;;8.02;5.28;;;;;;;;;;5111404;28;20050;-19
2020/12/19 08:04:56;;;;;;;11.55;5.60;;;;;;;;;;5112694;28;20028;-19
2020/12/19 08:07:23;;;;;;;9.50;5.45;;;;;;;;;;5111518;28;20078;-18
2020/12/19 08:09:56;;;;;;;9.73;6.40;;;;;;;;;;5113160;28;20102;-18
2020/12/19 08:12:21;;;;;;;9.07;5.20;;;;;;;;;;5113201;28;20386;-19
2020/12/19 08:14:47;;;;;;;11.40;5.90;;;;;;;;;;5113046;28;20043;-18
2020/12/19 08:17:14;;;;;;;11.80;5.35;;;;;;;;;;5112419;28;20597;-19
2020/12/19 08:19:46;;;;;;;7.80;5.63;;;;;;;;;;5110810;28;20012;-20
2020/12/19 08:22:12;;;;;;;9.85;5.97;;;;;;;;;;5110701;28;20536;-19
2020/12/19 08:24:38;;;;;;;8.20;5.13;;;;;;;;;;5111731;28;20144;-19
2020/12/19 08:27:22;;;;;;;8.95;5.38;;;;;;;;;;5111952;27;20039;-19
2020/12/19 08:29:59;;;;;;;14.15;5.50;;;;;;;;;;5111355;28;20027;-25
2020/12/19 08:32:25;;;;;;;11.38;5.75;;;;;;;;;;5110712;28;20036;-19
2020/12/19 08:34:50;;;;;;;9.13;5.07;;;;;;;;;;5112121;28;20024;-19
2020/12/19 08:37:19;;;;;;;7.85;4.47;;;;;;;;;;5112035;28;20049;-19
2020/12/19 08:40:01;;;;;;;9.20;6.22;;;;;;;;;;5111839;28;20031;-21
2020/12/19 08:42:30;;;;;;;8.60;5.43;;;;;;;;;;5111322;28;20462;-19
2020/12/19 08:45:10;;;;;;;11.40;5.85;;;;;;;;;;5110579;28;20065;-20
2020/12/19 08:47:36;;;;;;;9.52;5.43;;;;;;;;;;5111182;28;20156;-20
2020/12/19 08:50:03;;;;;;;10.30;5.63;;;;;;;;;;5111388;28;20106;-19
2020/12/19 08:52:28;;;;;;;8.88;5.88;;;;;;;;;;5110367;28;20031;-20
2020/12/19 08:54:57;;;;;;;12.07;6.72;;;;;;;;;;5108954;28;20019;-19
2020/12/19 08:57:27;;;;;;;9.57;5.70;;;;;;;;;;5111629;28;20024;-19
2020/12/19 08:59:52;;;;;;;12.88;7.20;;;;;;;;;;5111607;28;20024;-19
2020/12/19 09:02:20;;;;;;;9.20;5.65;;;;;;;;;;5111727;28;20068;-18
2020/12/19 09:04:48;;;;;;;10.55;5.57;;;;;;;;;;5111245;28;20027;-19
2020/12/19 09:07:14;;;;;;;10.93;5.95;;;;;;;;;;5111729;28;20176;-19
2020/12/19 09:09:39;;;;;;;8.77;5.75;;;;;;;;;;5111613;28;20102;-18
2020/12/19 09:12:08;;;;;;;10.52;6.60;;;;;;;;;;5111708;28;20434;-21
2020/12/19 09:14:34;;;;;;;10.10;5.93;;;;;;;;;;5110186;28;20366;-21
2020/12/19 09:16:59;;;;;;;10.82;5.25;;;;;;;;;;5111054;28;20036;-18
2020/12/19 09:19:25;;;;;;;8.52;5.07;;;;;;;;;;5111671;27;20023;-19
2020/12/19 09:21:54;;;;;;;10.32;5.07;;;;;;;;;;5111281;28;20133;-20
2020/12/19 09:24:20;;;;;;;9.77;5.85;;;;;;;;;;5111489;28;20099;-21
2020/12/19 09:26:46;;;;;;;9.43;5.60;;;;;;;;;;5111091;28;20035;-19
2020/12/19 09:29:11;;;;;;;11.65;6.18;;;;;;;;;;5111114;27;20477;-19
2020/12/19 09:31:37;;;;;;;12.43;6.13;;;;;;;;;;5109933;28;20119;-20
2020/12/19 09:34:03;;;;;;;10.55;5.40;;;;;;;;;;5111257;28;20485;-20
2020/12/19 09:36:28;;;;;;;10.77;5.65;;;;;;;;;;5111284;28;20020;-20
2020/12/19 09:38:54;;;;;;;6.60;5.13;;;;;;;;;;5111649;28;20019;-19
2020/12/19 09:41:20;;;;;;;7.93;5.25;;;;;;;;;;5109553;28;20031;-19
2020/12/19 09:43:45;;;;;;;9.02;5.25;;;;;;;;;;5090887;28;20054;-18
2020/12/19 09:46:17;;;;;;;8.65;6.00;;;;;;;;;;5090753;28;20046;-19
2020/12/19 09:48:43;;;;;;;8.70;6.20;;;;;;;;;;5090985;28;20040;-19
2020/12/19 09:51:08;;;;;;;8.27;5.38;;;;;;;;;;5090323;28;20521;-19
2020/12/19 09:53:35;;;;;;;12.80;6.70;;;;;;;;;;5089877;28;20043;-22
2020/12/19 09:56:00;;;;;;;9.93;5.43;;;;;;;;;;5089716;28;20113;-19
2020/12/19 09:58:25;;;;;;;10.95;6.07;;;;;;;;;;5089000;28;20567;-20
2020/12/19 10:00:51;;;;;;;11.07;5.85;;;;;;;;;;5090290;28;20026;-21
2020/12/19 10:03:17;;;;;;;7.72;4.95;;;;;;;;;;5088705;28;20055;-19
2020/12/19 10:05:42;;;;;;;7.95;4.75;;;;;;;;;;5105555;28;20023;-20
2020/12/19 10:08:07;;;;;;;8.68;5.07;;;;;;;;;;5110201;28;20054;-18
2020/12/19 10:10:34;;;;;;;8.82;5.10;;;;;;;;;;5110294;28;20085;-20
2020/12/19 10:13:00;;;;;;;9.00;5.20;;;;;;;;;;5109036;28;20043;-19
2020/12/19 10:15:26;;;;;;;11.15;5.75;;;;;;;;;;5110362;28;20023;-20
2020/12/19 10:17:52;;;;;;;9.57;5.35;;;;;;;;;;5109946;28;20038;-20
2020/12/19 10:20:17;;;;;;;8.05;5.15;;;;;;;;;;5110224;28;20026;-19
2020/12/19 10:22:43;;;;;;;7.03;4.82;;;;;;;;;;5110198;27;20059;-19
2020/12/19 10:25:09;;;;;;;8.23;5.85;;;;;;;;;;5110735;28;20039;-19
2020/12/19 10:27:34;;;;;;;14.90;7.85;;;;;;;;;;5110229;28;20523;-20
2020/12/19 10:30:00;;;;;;;14.90;7.90;;;;;;;;;;5109930;28;20027;-21
2020/12/19 10:32:26;;;;;;;13.90;8.13;;;;;;;;;;5110464;28;20110;-19
2020/12/19 10:34:51;;;;;;;10.20;6.55;;;;;;;;;;5108887;28;20019;-19
2020/12/19 10:37:17;;;;;;;9.40;5.88;;;;;;;;;;5108208;28;20044;-19
2020/12/19 10:39:42;;;;;;;11.10;6.47;;;;;;;;;;5109875;28;20346;-20
2020/12/19 10:42:07;;;;;;;8.57;4.80;;;;;;;;;;5109392;28;20076;-19
2020/12/19 10:44:33;;;;;;;14.07;7.75;;;;;;;;;;5109713;28;20020;-20
2020/12/19 10:46:59;;;;;;;6.38;4.43;;;;;;;;;;5109903;28;20039;-18
2020/12/19 10:49:25;;;;;;;8.35;5.57;;;;;;;;;;5109693;28;20031;-19
2020/12/19 10:51:50;;;;;;;11.63;5.10;;;;;;;;;;5108545;28;20036;-19
2020/12/19 10:54:16;;;;;;;8.60;5.25;;;;;;;;;;5108296;28;20500;-19
2020/12/19 10:56:42;;;;;;;9.48;5.95;;;;;;;;;;5109688;28;20035;-20
2020/12/19 10:59:07;;;;;;;9.57;5.78;;;;;;;;;;5109831;28;20015;-19
2020/12/19 11:01:33;;;;;;;12.85;6.45;;;;;;;;;;5109631;28;20031;-20
2020/12/19 11:03:58;;;;;;;8.77;6.38;;;;;;;;;;5109458;28;20053;-18
2020/12/19 11:06:25;;;;;;;9.48;5.63;;;;;;;;;;5109201;28;20027;-20
2020/12/19 11:08:51;;;;;;;8.35;5.15;;;;;;;;;;5107758;28;20751;-20
2020/12/19 11:11:17;;;;;;;10.43;4.47;;;;;;;;;;5091352;28;20288;-19
2020/12/19 11:13:45;;;;;;;7.70;4.65;;;;;;;;;;5108446;28;20028;-19
2020/12/19 11:16:23;;;;;;;12.10;5.65;;;;;;;;;;5109725;28;20055;-19
2020/12/19 11:18:49;;;;;;;9.27;6.30;;;;;;;;;;5109068;28;20501;-19
2020/12/19 11:21:14;;;;;;;7.28;4.88;;;;;;;;;;5109247;28;20022;-20
2020/12/19 11:23:40;;;;;;;6.75;5.18;;;;;;;;;;5109414;28;20032;-20
2020/12/19 11:26:05;;;;;;;14.20;5.65;;;;;;;;;;5107928;28;20043;-19
2020/12/19 11:28:31;;;;;;;12.65;6.15;;;;;;;;;;5109118;28;20102;-20
2020/12/19 11:30:57;;;;;;;9.93;6.20;;;;;;;;;;5109092;28;20032;-18
2020/12/19 11:33:23;;;;;;;8.43;5.68;;;;;;;;;;5109225;28;20027;-19
2020/12/19 11:35:48;;;;;;;9.07;6.13;;;;;;;;;;5108030;28;20028;-20
2020/12/19 11:38:14;;;;;;;8.48;5.28;;;;;;;;;;5109387;28;20031;-19
2020/12/19 11:40:40;;;;;;;9.57;6.15;;;;;;;;;;5109245;28;20027;-18
2020/12/19 11:43:06;;;;;;;8.70;6.40;;;;;;;;;;5108395;28;20027;-18
2020/12/19 11:45:31;;;;;;;15.05;7.05;;;;;;;;;;5107120;28;20486;-19
2020/12/19 11:47:57;;;;;;;11.48;6.35;;;;;;;;;;5107551;28;20040;-19
2020/12/19 11:50:23;;;;;;;9.32;6.22;;;;;;;;;;5107117;28;20091;-20
2020/12/19 11:52:48;;;;;;;11.25;6.72;;;;;;;;;;5108265;28;20504;-18
2020/12/19 11:55:14;;;;;;;10.50;6.18;;;;;;;;;;5108852;28;20028;-19
2020/12/19 11:57:39;;;;;;;11.40;6.25;;;;;;;;;;5107754;28;20149;-19
2020/12/19 12:00:05;;;;;;;10.90;5.95;;;;;;;;;;5107804;28;20016;-20
2020/12/19 12:02:31;;;;;;;8.95;5.03;;;;;;;;;;5108679;28;20032;-19
2020/12/19 12:04:57;;;;;;;9.77;5.63;;;;;;;;;;5107910;28;20087;-17
2020/12/19 12:07:22;;;;;;;8.57;5.22;;;;;;;;;;5108406;28;20043;-19
2020/12/19 12:09:47;;;;;;;10.88;6.15;;;;;;;;;;5108441;28;20012;-18
2020/12/19 12:12:13;;;;;;;9.07;5.97;;;;;;;;;;5108810;28;20024;-18
2020/12/19 12:14:38;;;;;;;6.95;5.20;;;;;;;;;;5107247;28;20381;-17
2020/12/19 12:17:04;;;;;;;14.52;6.80;;;;;;;;;;5108198;28;20046;-19
2020/12/19 12:19:29;;;;;;;16.45;8.63;;;;;;;;;;5109595;28;20059;-18
2020/12/19 12:21:55;;;;;;;12.13;7.32;;;;;;;;;;5112345;28;20032;-20
2020/12/19 12:24:20;;;;;;;11.80;6.93;;;;;;;;;;5112399;28;20041;-19
2020/12/19 12:26:46;;;;;;;12.68;6.78;;;;;;;;;;5112027;28;20751;-18
2020/12/19 12:29:12;;;;;;;12.50;6.68;;;;;;;;;;5111646;28;20095;-20
2020/12/19 12:31:40;;;;;;;13.45;7.80;;;;;;;;;;5112137;28;20110;-17
2020/12/19 12:34:06;;;;;;;11.98;7.68;;;;;;;;;;5110941;28;20012;-20
2020/12/19 12:36:31;;;;;;;11.13;7.03;;;;;;;;;;5104918;28;20034;-19
2020/12/19 12:38:57;;;;;;;13.10;7.55;;;;;;;;;;5110144;28;20027;-18
2020/12/19 12:41:23;;;;;;;33.90;15.48;;;;;;;;;;5110245;28;20031;-20
2020/12/19 12:43:48;;;;;;;12.95;7.15;;;;;;;;;;5093269;28;20047;-19
2020/12/19 12:46:15;;;;;;;13.55;8.52;;;;;;;;;;5090100;28;20461;-19
2020/12/19 12:48:41;;;;;;;15.07;8.02;;;;;;;;;;5091117;28;20028;-20
2020/12/19 12:51:07;;;;;;;13.15;7.90;;;;;;;;;;5089976;28;20134;-19
2020/12/19 12:53:33;;;;;;;16.83;10.80;;;;;;;;;;5091047;28;20071;-25
2020/12/19 12:55:58;;;;;;;15.43;7.57;;;;;;;;;;5109371;28;20505;-20
2020/12/19 12:58:24;;;;;;;22.83;12.23;;;;;;;;;;5111358;28;20663;-19
2020/12/19 13:00:49;;;;;;;19.38;11.43;;;;;;;;;;5110063;28;20038;-19
2020/12/19 13:03:15;;;;;;;16.33;8.90;;;;;;;;;;5111416;28;20015;-17
2020/12/19 13:05:40;;;;;;;17.75;11.82;;;;;;;;;;5109448;28;20477;-20
2020/12/19 13:08:06;;;;;;;16.75;8.70;;;;;;;;;;5111100;28;20035;-18
2020/12/19 13:10:31;;;;;;;19.08;9.52;;;;;;;;;;5109885;28;20114;-21
2020/12/19 13:12:57;;;;;;;14.68;8.13;;;;;;;;;;5111381;28;20377;-20
2020/12/19 13:15:22;;;;;;;14.55;7.32;;;;;;;;;;5111199;28;20036;-19
2020/12/19 13:17:48;;;;;;;17.23;9.35;;;;;;;;;;5110416;28;20089;-19
2020/12/19 13:20:13;;;;;;;21.92;13.18;;;;;;;;;;5111076;28;20085;-19
2020/12/19 13:22:39;;;;;;;18.55;11.70;;;;;;;;;;5109451;28;20027;-18
2020/12/19 13:25:04;;;;;;;21.88;11.95;;;;;;;;;;5111314;28;20430;-20
2020/12/19 13:27:29;;;;;;;22.15;11.27;;;;;;;;;;5109491;28;20115;-20
2020/12/19 13:29:55;;;;;;;17.90;11.13;;;;;;;;;;5110834;28;20055;-20
2020/12/19 13:32:21;;;;;;;20.60;12.57;;;;;;;;;;5110367;28;20059;-19
2020/12/19 13:34:46;;;;;;;18.80;10.57;;;;;;;;;;5109536;28;20027;-19
2020/12/19 13:37:11;;;;;;;22.10;10.32;;;;;;;;;;5110893;28;20069;-20
2020/12/19 13:39:37;;;;;;;17.33;10.13;;;;;;;;;;5110637;28;20040;-20
2020/12/19 13:42:03;;;;;;;22.50;11.38;;;;;;;;;;5110146;28;20022;-20
2020/12/19 13:44:28;;;;;;;18.50;9.32;;;;;;;;;;5110673;28;20039;-19
2020/12/19 13:46:55;;;;;;;20.60;12.40;;;;;;;;;;5108826;28;20028;-19
2020/12/19 13:49:20;;;;;;;19.65;12.27;;;;;;;;;;5110067;28;20792;-19
2020/12/19 13:51:46;;;;;;;22.80;13.02;;;;;;;;;;5110717;28;20122;-20
2020/12/19 13:54:12;;;;;;;23.85;13.88;;;;;;;;;;5091823;28;20050;-19
2020/12/19 13:56:40;;;;;;;25.45;14.20;;;;;;;;;;5110358;28;20099;-19
2020/12/19 13:59:08;;;;;;;19.38;12.55;;;;;;;;;;5110328;28;20023;-19
2020/12/19 14:01:34;;;;;;;29.52;14.90;;;;;;;;;;5109966;28;20023;-21
2020/12/19 14:04:00;;;;;;;25.98;14.68;;;;;;;;;;5110381;28;20027;-20
2020/12/19 14:06:29;;;;;;;24.05;15.15;;;;;;;;;;5109741;28;20382;-21
2020/12/19 14:08:54;;;;;;;29.42;16.80;;;;;;;;;;5109869;28;20030;-21
2020/12/19 14:11:27;;;;;;;30.27;15.60;;;;;;;;;;5110516;28;20023;-19
2020/12/19 14:13:52;;;;;;;29.75;16.08;;;;;;;;;;5110064;28;20027;-21
2020/12/19 14:16:18;;;;;;;28.90;15.15;;;;;;;;;;5110144;28;20378;-21
2020/12/19 14:18:43;;;;;;;22.17;12.65;;;;;;;;;;5108367;28;20035;-21
2020/12/19 14:21:09;;;;;;;28.92;14.75;;;;;;;;;;5110125;28;20462;-21
2020/12/19 14:23:34;;;;;;;28.45;15.48;;;;;;;;;;5109770;28;20561;-21
2020/12/19 14:25:59;;;;;;;26.95;15.35;;;;;;;;;;5109569;28;20024;-20
2020/12/19 14:28:25;;;;;;;27.30;14.10;;;;;;;;;;5110059;28;20095;-21
2020/12/19 14:30:50;;;;;;;32.55;16.52;;;;;;;;;;5109628;28;20011;-19